METAR Data
IDs: Format: Raw Decoded Include TAF

Data at: 0110 UTC 06 Dec 2019

KTVY 060055Z AUTO 00000KT 1 1/4SM BR OVC007 01/01 A3025 RMK AO2
KTVY 060035Z AUTO 00000KT 1 1/4SM BR OVC007 01/00 A3025 RMK AO2
KTVY 060015Z AUTO 00000KT 3/4SM BR OVC007 01/01 A3024 RMK AO2
KTVY 052355Z AUTO 00000KT 1SM BR OVC007 01/01 A3024 RMK AO2
KTVY 052335Z AUTO 00000KT 1 1/4SM BR OVC007 01/01 A3024 RMK AO2
KTVY 052315Z AUTO 00000KT 1SM BR OVC007 01/01 A3023 RMK AO2
KTVY 052255Z AUTO 00000KT 1SM BR OVC007 01/01 A3023 RMK AO2
KTVY 052235Z AUTO 00000KT 3/4SM BR OVC007 01/01 A3022 RMK AO2
KTVY 052215Z AUTO 00000KT 1SM BR OVC007 01/01 A3020 RMK AO2
KTVY 052155Z AUTO 00000KT 1SM BR OVC007 01/01 A3019 RMK AO2
KTVY 052135Z AUTO 00000KT 1SM BR OVC007 01/01 A3019 RMK AO2
KTVY 052115Z AUTO 00000KT 3/4SM BR OVC005 01/01 A3019 RMK AO2
KTVY 052055Z AUTO 32003KT 1SM BR OVC005 01/01 A3018 RMK AO2
KTVY 052035Z AUTO 00000KT 1 1/4SM BR OVC005 01/01 A3017 RMK AO2
KTVY 052015Z AUTO 23003KT 1SM BR OVC005 01/01 A3017 RMK AO2
KTVY 051955Z AUTO 00000KT 1SM BR OVC005 01/01 A3017 RMK AO2
KTVY 051935Z AUTO 00000KT 1SM BR OVC007 02/02 A3017 RMK AO2
KTVY 051915Z AUTO 00000KT 3/4SM BR OVC007 02/02 A3017 RMK AO2
KTVY 051855Z AUTO 00000KT 3/4SM BR OVC007 01/01 A3017 RMK AO2
KTVY 051835Z AUTO 00000KT 3/4SM BR OVC007 01/01 A3017 RMK AO2
KTVY 051815Z AUTO 00000KT 3/4SM BR OVC007 01/01 A3016 RMK AO2
KTVY 051755Z AUTO 00000KT 3/4SM BR OVC007 01/01 A3015 RMK AO2
KTVY 051735Z AUTO 24003KT 1SM BR OVC007 01/01 A3015 RMK AO2
KTVY 051715Z AUTO 00000KT 3/4SM BR OVC007 00/00 A3014 RMK AO2
KTVY 051655Z AUTO 00000KT 3/4SM BR OVC007 00/00 A3013 RMK AO2
KTVY 051615Z AUTO 00000KT 3/4SM BR OVC005 01/01 A3010 RMK AO2
KTVY 051555Z AUTO 00000KT 3/4SM BR OVC007 00/00 A3010 RMK AO2
KTVY 051535Z AUTO 00000KT 3/4SM BR OVC007 00/00 A3008 RMK AO2
KTVY 051515Z AUTO 00000KT 3/4SM -RA OVC010 00/00 A3006 RMK AO2
KTVY 051455Z AUTO 00000KT 3/4SM -DZ OVC008 00/00 A3005 RMK AO2
KTVY 051435Z AUTO 00000KT 3/4SM RA OVC008 00/00 A3004 RMK AO2
KTVY 051415Z AUTO 13003KT 1SM -RA OVC008 00/00 A3002 RMK AO2
KTVY 051355Z AUTO 00000KT 1 1/4SM RA OVC008 00/00 A3002 RMK AO2
KTVY 051335Z AUTO 08003KT 1 1/4SM RA OVC008 01/01 A3000 RMK AO2
KTVY 051315Z AUTO 00000KT 1 1/2SM -RA OVC006 00/00 A2999 RMK AO2
KTVY 051255Z AUTO 21003KT 1 1/2SM BR OVC004 00/00 A2998 RMK AO2
KTVY 051235Z AUTO 00000KT 1 1/2SM BR OVC004 00/00 A2997 RMK AO2
KTVY 051215Z AUTO 22004KT 1 1/2SM BR OVC004 00/00 A2996 RMK AO2
KTVY 051155Z AUTO 21004KT 1 1/4SM BR OVC004 00/00 A2996 RMK AO2
KTVY 051135Z AUTO 20005KT 1 1/2SM BR OVC004 00/00 A2996 RMK AO2
KTVY 051115Z AUTO 19003KT 1 1/4SM BR OVC004 00/00 A2995 RMK AO2
KTVY 051055Z AUTO 00000KT 1 1/4SM BR OVC004 00/00 A2995 RMK AO2
KTVY 051035Z AUTO 00000KT 1 1/4SM BR OVC002 00/00 A2994 RMK AO2
KTVY 051015Z AUTO 00000KT 1 1/4SM BR OVC002 00/00 A2994 RMK AO2
KTVY 050955Z AUTO 00000KT 1 1/4SM BR OVC002 00/00 A2994 RMK AO2
KTVY 050935Z AUTO 00000KT 1SM BR OVC002 00/00 A2993 RMK AO2
KTVY 050915Z AUTO 00000KT 1 1/4SM BR OVC002 00/00 A2992 RMK AO2
KTVY 050855Z AUTO 00000KT 1 1/4SM BR OVC002 00/00 A2991 RMK AO2
KTVY 050835Z AUTO 25004KT 1SM BR OVC002 00/00 A2991 RMK AO2
KTVY 050815Z AUTO 27004KT 1SM BR OVC002 00/00 A2990 RMK AO2
KTVY 050755Z AUTO 28003KT 1SM -DZ OVC002 00/00 A2990 RMK AO2
KTVY 050735Z AUTO 00000KT 1SM RA BKN002 OVC008 00/00 A2990 RMK AO2
KTVY 050715Z AUTO 30003KT 1SM RA BKN002 BKN019 OVC034 00/00 A2990 RMK AO2
KTVY 050655Z AUTO 00000KT 1 1/2SM UP SCT002 SCT015 OVC034 00/00 A2990 RMK AO2 P0003
KTVY 050635Z AUTO 01004KT 1 1/2SM UP SCT014 BKN029 OVC039 00/00 A2990 RMK AO2 P0002
KTVY 050615Z AUTO 07004KT 1 3/4SM UP SCT022 OVC029 00/00 A2990 RMK AO2 P0001
KTVY 050555Z AUTO 06003KT 1 1/2SM UP OVC027 00/00 A2990 RMK AO2 P0005
KTVY 050535Z AUTO 05003KT 1 1/4SM -RA OVC031 00/00 A2991 RMK AO2 P0005
KTVY 050515Z AUTO 00000KT 1 1/2SM SN SCT004 BKN024 OVC033 00/00 A2991 RMK AO2 P0003
KTVY 050455Z AUTO 09003KT 1 1/2SM -SN SCT003 BKN027 OVC033 00/00 A2991 RMK AO2 P0005
KTVY 050435Z AUTO 00000KT 1 1/4SM UP SCT003 BKN008 OVC036 00/00 A2991 RMK AO2 P0001
KTVY 050415Z AUTO 22004KT 1 1/4SM UP SCT003 BKN037 OVC050 M01/M01 A2991 RMK AO2
KTVY 050355Z AUTO 00000KT 3/4SM UP OVC003 M01/M01 A2991 RMK AO2
KTVY 050335Z AUTO 00000KT 1/4SM FZFG OVC003 M01/M01 A2991 RMK AO2
KTVY 050315Z AUTO 00000KT 1/4SM FZFG OVC003 M01/M01 A2991 RMK AO2
KTVY 050255Z AUTO 00000KT 1/4SM FZFG OVC003 M01/M01 A2991 RMK AO2
KTVY 050235Z AUTO 00000KT 1/4SM FZFG OVC003 M01/M01 A2992 RMK AO2
KTVY 050215Z AUTO 00000KT 1/2SM FZFG OVC003 M01/M01 A2992 RMK AO2
KTVY 050155Z AUTO 00000KT 1/4SM FZFG OVC003 M01/M01 A2994 RMK AO2
KTVY 050135Z AUTO 12004KT 1/4SM FZFG OVC003 M01/M01 A2995 RMK AO2
KTVY 050115Z AUTO 00000KT 1/4SM FZFG OVC003 M01/M01 A2995 RMK AO2
KTVY 050055Z AUTO 00000KT 1/4SM FZFG OVC003 M01/M01 A2995 RMK AO2
KTVY 050035Z AUTO 00000KT 1/4SM FZFG OVC003 M01/M01 A2996 RMK AO2
KTVY 050015Z AUTO 00000KT M1/4SM FZFG OVC003 M01/M01 A2996 RMK AO2
KTVY 042355Z AUTO 00000KT M1/4SM FZFG OVC003 M01/M01 A2995 RMK AO2
KTVY 042335Z AUTO 14003KT M1/4SM FZFG OVC003 M01/M01 A2996 RMK AO2
KTVY 042315Z AUTO 00000KT M1/4SM FZFG OVC003 M01/M01 A2998 RMK AO2
KTVY 042255Z AUTO 00000KT 1/4SM FZFG OVC003 M01/M01 A2998 RMK AO2
KTVY 042235Z AUTO 00000KT 1/4SM FZFG OVC003 M01/M01 A2998 RMK AO2
KTVY 042215Z AUTO 00000KT 1/4SM FZFG OVC003 00/00 A2998 RMK AO2
KTVY 042155Z AUTO 00000KT 1/4SM FZFG OVC003 M01/M01 A2999 RMK AO2
KTVY 042135Z AUTO 00000KT 1/4SM FZFG OVC003 M01/M01 A2999 RMK AO2
KTVY 042115Z AUTO 00000KT 1/4SM FZFG OVC003 M01/M01 A3000 RMK AO2
KTVY 042055Z AUTO 00000KT 1/2SM FZFG OVC003 M01/M01 A3001 RMK AO2
KTVY 042035Z AUTO 00000KT 1SM BR OVC003 M01/M01 A3002 RMK AO2
KTVY 042015Z AUTO 00000KT 3/4SM BR OVC003 M01/M01 A3003 RMK AO2
KTVY 041955Z AUTO 00000KT 1/2SM FZFG OVC003 M01/M01 A3004 RMK AO2
KTVY 041935Z AUTO 00000KT 3/4SM BR OVC003 M01/M01 A3006 RMK AO2
KTVY 041915Z AUTO 01003KT 1/2SM FZFG OVC001 00/00 A3006 RMK AO2
KTVY 041855Z AUTO 04003KT 1/2SM FZFG OVC001 M01/M01 A3007 RMK AO2
KTVY 041835Z AUTO 00000KT 1/4SM FZFG OVC001 M01/M01 A3007 RMK AO2
KTVY 041815Z AUTO 24003KT M1/4SM FZFG OVC001 M01/M01 A3008 RMK AO2
KTVY 041755Z AUTO 23005KT M1/4SM FZFG OVC001 M02/M02 A3010 RMK AO2
KTVY 041735Z AUTO 23003KT M1/4SM FZFG OVC001 M02/M02 A3010 RMK AO2
KTVY 041715Z AUTO 00000KT M1/4SM FZFG OVC001 M02/M02 A3011 RMK AO2
KTVY 041655Z AUTO 00000KT M1/4SM FZFG OVC001 M03/M03 A3010 RMK AO2
KTVY 041635Z AUTO 19004KT 2SM BR OVC001 M05/M05 A3010 RMK AO2 VIS 1V5
KTVY 041615Z AUTO 00000KT M1/4SM FZFG OVC001 M04/M05 A3010 RMK AO2
KTVY 041555Z AUTO 00000KT M1/4SM FZFG OVC001 M05/M05 A3011 RMK AO2
KTVY 041535Z AUTO 00000KT M1/4SM FZFG OVC001 M05/M05 A3011 RMK AO2
KTVY 041515Z AUTO 23004KT M1/4SM FZFG OVC001 M05/M05 A3011 RMK AO2
KTVY 041455Z AUTO 22007KT M1/4SM -SN OVC001 M05/M06 A3011 RMK AO2
KTVY 041435Z AUTO 23007KT 3/4SM BR BKN003 M06/M06 A3011 RMK AO2
KTVY 041415Z AUTO 22006KT 1 3/4SM BR SCT003 M05/M05 A3011 RMK AO2
KTVY 041355Z AUTO 19003KT 5SM BR CLR M06/M06 A3011 RMK AO2
KTVY 041335Z AUTO 00000KT 4SM BR SCT004 M05/M05 A3011 RMK AO2
KTVY 041315Z AUTO 00000KT 4SM BR OVC004 M05/M05 A3012 RMK AO2